createdAt,value
2018-02-12T00:01:44.297Z,99922.89
2018-02-12T00:04:10.155Z,99919.68
2018-02-12T00:06:35.962Z,99926.04
2018-02-12T00:09:01.814Z,99931.03
2018-02-12T00:11:27.623Z,99925.41
2018-02-12T00:13:53.475Z,99925.91
2018-02-12T00:16:19.299Z,99933.33
2018-02-12T00:18:45.141Z,99931.20
2018-02-12T00:21:11.086Z,99933.64
2018-02-12T00:23:36.929Z,99936.03
2018-02-12T00:26:02.742Z,99939.41
2018-02-12T00:28:28.586Z,99943.36
2018-02-12T00:30:54.393Z,99935.48
2018-02-12T00:33:20.199Z,99942.44
2018-02-12T00:35:46.044Z,99944.66
2018-02-12T00:38:11.860Z,99946.28
2018-02-12T00:40:37.705Z,99956.02
2018-02-12T00:43:03.566Z,99957.02
2018-02-12T00:45:29.402Z,99956.53
2018-02-12T00:47:55.206Z,99960.03
2018-02-12T00:50:21.057Z,99965.05
2018-02-12T00:52:46.870Z,99955.11
2018-02-12T00:55:12.673Z,99957.92
2018-02-12T00:57:38.483Z,99957.89
2018-02-12T01:00:04.325Z,99968.63
2018-02-12T01:02:30.142Z,99962.77
2018-02-12T01:04:55.953Z,99967.10
2018-02-12T01:07:21.784Z,99970.81
2018-02-12T01:09:47.595Z,99971.43
2018-02-12T01:12:13.403Z,99972.89
2018-02-12T01:14:39.214Z,99981.38
2018-02-12T01:17:05.065Z,99985.80
2018-02-12T01:19:30.869Z,99990.06
2018-02-12T01:21:56.721Z,99991.94
2018-02-12T01:24:22.542Z,99993.28
2018-02-12T01:26:48.357Z,99993.80
2018-02-12T01:29:14.166Z,99995.40
2018-02-12T01:31:40.054Z,99997.09
2018-02-12T01:34:05.894Z,99998.38
2018-02-12T01:36:31.702Z,99999.55
2018-02-12T01:38:57.506Z,99998.55
2018-02-12T01:41:23.309Z,99993.63
2018-02-12T01:43:49.116Z,99998.23
2018-02-12T01:46:14.918Z,99995.36
2018-02-12T01:48:40.722Z,100003.98
2018-02-12T01:51:06.529Z,100005.27
2018-02-12T01:53:32.354Z,100002.67
2018-02-12T01:55:58.161Z,99997.75
2018-02-12T01:58:23.965Z,100006.41
2018-02-12T02:00:49.818Z,100008.52
2018-02-12T02:03:15.625Z,100009.66
2018-02-12T02:05:41.433Z,100012.58
2018-02-12T02:08:07.241Z,100012.09
2018-02-12T02:10:33.050Z,100017.56
2018-02-12T02:12:58.853Z,100017.73
2018-02-12T02:15:24.669Z,100016.11
2018-02-12T02:17:50.603Z,100021.41
2018-02-12T02:20:16.414Z,100027.70
2018-02-12T02:22:42.263Z,100028.23
2018-02-12T02:25:08.069Z,100021.99
2018-02-12T02:27:33.910Z,100024.83
2018-02-12T02:29:59.717Z,100023.75
2018-02-12T02:32:26.415Z,100027.78
2018-02-12T02:34:52.256Z,100034.67
2018-02-12T02:37:18.057Z,100035.02
2018-02-12T02:39:43.867Z,100030.34
2018-02-12T02:42:09.715Z,100036.95
2018-02-12T02:44:35.529Z,100035.49
2018-02-12T02:47:01.379Z,100036.19
2018-02-12T02:49:27.225Z,100026.39
2018-02-12T02:51:54.073Z,100038.65
2018-02-12T02:54:20.852Z,100036.91
2018-02-12T02:56:47.456Z,100041.23
2018-02-12T02:59:13.289Z,100045.84
2018-02-12T03:01:39.095Z,100047.50
2018-02-12T03:04:05.946Z,100048.95
2018-02-12T03:06:32.696Z,100046.64
2018-02-12T03:08:58.521Z,100045.23
2018-02-12T03:11:25.248Z,100048.52
2018-02-12T03:13:51.082Z,100049.41
2018-02-12T03:16:16.897Z,100044.50
2018-02-12T03:18:42.740Z,100048.16
2018-02-12T03:21:09.464Z,100051.19
2018-02-12T03:23:36.149Z,100056.06
2018-02-12T03:26:01.977Z,100052.50
2018-02-12T03:28:27.809Z,100047.66
2018-02-12T03:30:53.612Z,100045.64
2018-02-12T03:33:19.424Z,100051.22
2018-02-12T03:35:46.252Z,100055.33
2018-02-12T03:38:13.198Z,100054.06
2018-02-12T03:40:39.043Z,100058.67
2018-02-12T03:43:04.840Z,100056.28
2018-02-12T03:45:30.661Z,100055.31
2018-02-12T03:47:57.280Z,100053.09
2018-02-12T03:50:24.061Z,100061.61
2018-02-12T03:52:49.857Z,100060.88
2018-02-12T03:55:15.661Z,100059.66
2018-02-12T03:57:41.504Z,100060.56
2018-02-12T04:00:08.104Z,100061.43
2018-02-12T04:02:33.944Z,100065.75
2018-02-12T04:04:59.745Z,100067.05
2018-02-12T04:07:25.584Z,100066.63
2018-02-12T04:09:51.426Z,100059.56
2018-02-12T04:12:18.276Z,100061.54
2018-02-12T04:14:45.059Z,100069.06
2018-02-12T04:17:10.863Z,100070.52
2018-02-12T04:19:36.705Z,100076.84
2018-02-12T04:22:02.565Z,100080.19
2018-02-12T04:24:28.414Z,100086.23
2018-02-12T04:26:55.117Z,100082.24
2018-02-12T04:29:20.935Z,100081.45
2018-02-12T04:31:46.736Z,100083.02
2018-02-12T04:34:12.528Z,100079.59
2018-02-12T04:36:39.150Z,100084.97
2018-02-12T04:39:05.916Z,100084.39
2018-02-12T04:41:31.756Z,100086.92
2018-02-12T04:43:57.548Z,100085.03
2018-02-12T04:46:23.366Z,100083.73
2018-02-12T04:48:49.168Z,100076.78
2018-02-12T04:51:14.973Z,100074.55
2018-02-12T04:53:40.776Z,100076.45
2018-02-12T04:56:06.585Z,100079.31
2018-02-12T04:58:32.393Z,100079.55
2018-02-12T05:00:58.225Z,100082.68
2018-02-12T05:03:24.076Z,100079.68
2018-02-12T05:05:50.729Z,100084.87
2018-02-12T05:08:16.521Z,100087.58
2018-02-12T05:10:42.323Z,100087.63
2018-02-12T05:13:08.126Z,100090.53
2018-02-12T05:15:33.929Z,100093.66
2018-02-12T05:17:59.728Z,100094.73
2018-02-12T05:20:25.537Z,100099.48
2018-02-12T05:22:51.452Z,100101.42
2018-02-12T05:25:17.249Z,100107.12
2018-02-12T05:27:43.089Z,100113.52
2018-02-12T05:30:08.884Z,100112.55
2018-02-12T05:32:34.684Z,100110.31
2018-02-12T05:35:00.484Z,100114.77
2018-02-12T05:37:26.361Z,100120.63
2018-02-12T05:39:52.205Z,100123.97
2018-02-12T05:42:18.005Z,100124.34
2018-02-12T05:44:44.654Z,100128.20
2018-02-12T05:47:10.457Z,100127.41
2018-02-12T05:49:36.360Z,100131.58
2018-02-12T05:52:03.145Z,100137.71
2018-02-12T05:54:28.985Z,100141.06
2018-02-12T05:56:55.774Z,100135.87
2018-02-12T05:59:21.617Z,100139.28
2018-02-12T06:01:48.234Z,100146.35
2018-02-12T06:04:14.081Z,100143.89
2018-02-12T06:06:39.882Z,100147.64
2018-02-12T06:09:05.690Z,100146.67
2018-02-12T06:11:31.493Z,100151.23
2018-02-12T06:13:58.217Z,100153.66
2018-02-12T06:16:25.009Z,100162.36
2018-02-12T06:18:51.745Z,100166.67
2018-02-12T06:21:18.558Z,100165.86
2018-02-12T06:23:44.364Z,100163.34
2018-02-12T06:26:10.210Z,100161.69
2018-02-12T06:28:36.013Z,100170.26
2018-02-12T06:31:02.703Z,100172.26
2018-02-12T06:33:28.510Z,100178.83
2018-02-12T06:35:55.266Z,100184.02
2018-02-12T06:38:21.107Z,100183.53
2018-02-12T06:40:48.054Z,100187.89
2018-02-12T06:43:14.657Z,100191.39
2018-02-12T06:45:41.490Z,100198.30
2018-02-12T06:48:08.249Z,100191.33
2018-02-12T06:50:34.094Z,100195.05
2018-02-12T06:53:00.828Z,100199.58
2018-02-12T06:55:27.613Z,100209.15
2018-02-12T06:57:54.309Z,100209.10
2018-02-12T07:00:20.114Z,100208.27
2018-02-12T07:02:46.937Z,100207.20
2018-02-12T07:05:12.747Z,100214.91
2018-02-12T07:07:38.549Z,100217.00
2018-02-12T07:10:04.358Z,100211.13
2018-02-12T07:12:31.173Z,100220.28
2018-02-12T07:14:56.973Z,100221.96
2018-02-12T07:17:23.787Z,100229.69
2018-02-12T07:19:50.386Z,100226.76
2018-02-12T07:22:17.225Z,100238.59
2018-02-12T07:24:43.042Z,100237.34
2018-02-12T07:27:09.785Z,100227.34
2018-02-12T07:29:35.601Z,100234.41
2018-02-12T07:32:02.363Z,100236.75
2018-02-12T07:34:28.985Z,100234.91
2018-02-12T07:36:54.830Z,100234.55
2018-02-12T07:39:21.605Z,100243.69
2018-02-12T07:41:47.417Z,100246.02
2018-02-12T07:44:13.241Z,100242.72
2018-02-12T07:46:39.057Z,100243.34
2018-02-12T07:49:04.858Z,100249.24
2018-02-12T07:51:31.525Z,100252.36
2018-02-12T07:53:57.369Z,100250.87
2018-02-12T07:56:24.041Z,100244.83
2018-02-12T07:58:49.845Z,100246.48
2018-02-12T08:01:15.712Z,100249.71
2018-02-12T08:03:41.522Z,100263.17
2018-02-12T08:06:08.172Z,100260.80
2018-02-12T08:08:33.976Z,100265.65
2018-02-12T08:11:00.633Z,100264.44
2018-02-12T08:13:26.448Z,100280.17
2018-02-12T08:15:52.295Z,100287.67
2018-02-12T08:18:18.096Z,100287.17
2018-02-12T08:20:43.895Z,100290.78
2018-02-12T08:23:09.689Z,100298.98
2018-02-12T08:25:35.518Z,100304.77
2018-02-12T08:28:01.392Z,100308.89
2018-02-12T08:30:29.050Z,100310.16
2018-02-12T08:32:54.854Z,100310.77
2018-02-12T08:35:20.656Z,100312.75
2018-02-12T08:37:46.461Z,100316.32
2018-02-12T08:40:12.265Z,100322.13
2018-02-12T08:42:38.074Z,100325.41
2018-02-12T08:45:03.882Z,100326.14
2018-02-12T08:47:29.689Z,100333.13
2018-02-12T08:49:55.511Z,100330.28
2018-02-12T08:52:21.313Z,100332.65
2018-02-12T08:54:47.126Z,100336.89
2018-02-12T08:57:12.982Z,100336.11
2018-02-12T08:59:38.789Z,100340.09
2018-02-12T09:02:05.633Z,100337.41
2018-02-12T09:04:32.535Z,100340.20
2018-02-12T09:06:59.338Z,100344.94
2018-02-12T09:09:25.393Z,100348.53
2018-02-12T09:11:52.066Z,100346.86
2018-02-12T09:14:18.818Z,100357.61
2018-02-12T09:16:45.537Z,100357.08
2018-02-12T09:19:12.297Z,100365.23
2018-02-12T09:21:39.015Z,100368.76
2018-02-12T09:24:04.855Z,100371.20
2018-02-12T09:26:30.671Z,100369.28
2018-02-12T09:28:57.501Z,100378.38
2018-02-12T09:31:24.230Z,100379.27
2018-02-12T09:33:51.027Z,100383.41
2018-02-12T09:36:17.739Z,100385.73
2018-02-12T09:38:43.834Z,100386.95
2018-02-12T09:41:09.674Z,100390.54
2018-02-12T09:43:35.481Z,100386.59
2018-02-12T09:46:01.294Z,100389.45
2018-02-12T09:48:28.034Z,100401.45
2018-02-12T09:50:53.839Z,100406.23
2018-02-12T09:53:19.692Z,100402.10
2018-02-12T09:55:45.493Z,100396.64
2018-02-12T09:58:12.329Z,100406.98
2018-02-12T10:00:39.008Z,100408.75
2018-02-12T10:03:05.766Z,100405.86
2018-02-12T10:05:31.682Z,100413.89
2018-02-12T10:07:58.407Z,100416.84
2018-02-12T10:10:25.102Z,100423.27
2018-02-12T10:12:51.901Z,100425.00
2018-02-12T10:15:18.736Z,100426.16
2018-02-12T10:17:44.543Z,100422.44
2018-02-12T10:20:11.182Z,100429.11
2018-02-12T10:22:37.927Z,100432.06
2018-02-12T10:25:04.758Z,100432.42
2018-02-12T10:27:31.621Z,100435.73
2018-02-12T10:29:57.423Z,100438.66
2018-02-12T10:32:24.055Z,100447.16
2018-02-12T10:34:49.858Z,100449.31
2018-02-12T10:37:16.677Z,100454.64
2018-02-12T10:39:50.590Z,100454.45
2018-02-12T10:42:17.381Z,100443.91
2018-02-12T10:44:44.186Z,100453.39
2018-02-12T10:47:10.967Z,100455.93
2018-02-12T10:49:37.782Z,100454.42
2018-02-12T10:52:03.594Z,100457.73
2018-02-12T10:54:30.341Z,100453.14
2018-02-12T10:56:56.998Z,100456.38
2018-02-12T10:59:22.843Z,100461.10
2018-02-12T11:01:49.635Z,100461.55
2018-02-12T11:04:16.365Z,100465.05
2018-02-12T11:06:42.174Z,100468.13
2018-02-12T11:09:08.022Z,100472.64
2018-02-12T11:11:35.075Z,100471.77
2018-02-12T11:14:01.765Z,100476.10
2018-02-12T11:16:28.645Z,100477.81
2018-02-12T11:18:55.450Z,100484.42
2018-02-12T11:21:22.276Z,100480.22
2018-02-12T11:23:49.094Z,100488.25
2018-02-12T11:26:15.703Z,100488.41
2018-02-12T11:28:42.500Z,100494.77
2018-02-12T11:31:09.257Z,100494.92
2018-02-12T11:33:35.063Z,100498.08
2018-02-12T11:36:00.907Z,100494.90
2018-02-12T11:38:27.058Z,100499.30
2018-02-12T11:40:53.832Z,100494.83
2018-02-12T11:43:19.663Z,100488.31
2018-02-12T11:45:46.314Z,100490.55
2018-02-12T11:48:12.157Z,100492.65
2018-02-12T11:50:37.970Z,100488.95
2018-02-12T11:53:03.823Z,100489.02
2018-02-12T11:55:30.424Z,100496.05
2018-02-12T11:57:56.256Z,100500.32
2018-02-12T12:00:22.070Z,100500.16
2018-02-12T12:02:47.879Z,100508.52
2018-02-12T12:05:13.689Z,100509.52
2018-02-12T12:07:39.490Z,100507.36
2018-02-12T12:10:05.320Z,100508.70
2018-02-12T12:12:31.129Z,100511.13
2018-02-12T12:14:57.002Z,100519.48
2018-02-12T12:17:22.806Z,100518.13
2018-02-12T12:19:49.465Z,100516.97
2018-02-12T12:22:16.235Z,100513.34
2018-02-12T12:24:42.049Z,100509.67
2018-02-12T12:27:08.779Z,100509.42
2018-02-12T12:29:34.590Z,100512.56
2018-02-12T12:32:00.435Z,100505.03
2018-02-12T12:34:26.250Z,100512.85
2018-02-12T12:36:52.054Z,100515.30
2018-02-12T12:39:17.861Z,100516.52
2018-02-12T12:41:43.666Z,100512.51
2018-02-12T12:44:09.466Z,100516.69
2018-02-12T12:46:35.287Z,100516.39
2018-02-12T12:49:01.094Z,100514.87
2018-02-12T12:51:26.907Z,100518.16
2018-02-12T12:53:52.989Z,100517.16
2018-02-12T12:56:18.794Z,100537.47
2018-02-12T12:58:45.469Z,100535.28
2018-02-12T13:01:12.107Z,100542.28
2018-02-12T13:03:38.838Z,100536.31
2018-02-12T13:06:05.667Z,100534.77
2018-02-12T13:08:32.566Z,100545.23
2018-02-12T13:10:58.366Z,100545.17
2018-02-12T13:13:25.054Z,100553.31
2018-02-12T13:15:51.914Z,100549.52
2018-02-12T13:18:18.713Z,100550.84
2018-02-12T13:20:45.470Z,100554.59
2018-02-12T13:23:12.173Z,100554.65
2018-02-12T13:25:38.938Z,100558.05
2018-02-12T13:28:05.734Z,100555.64
2018-02-12T13:30:32.461Z,100561.84
2018-02-12T13:32:59.246Z,100565.32
2018-02-12T13:35:25.899Z,100570.12
2018-02-12T13:37:51.748Z,100572.27
2018-02-12T13:40:17.726Z,100564.90
2018-02-12T13:42:44.591Z,100567.46
2018-02-12T13:45:10.403Z,100567.41
2018-02-12T13:47:37.070Z,100568.26
2018-02-12T13:50:03.877Z,100569.67
2018-02-12T13:52:30.721Z,100574.21
2018-02-12T13:54:56.562Z,100576.15
2018-02-12T13:57:22.365Z,100578.97
2018-02-12T13:59:48.218Z,100579.62
2018-02-12T14:02:14.039Z,100580.84
2018-02-12T14:04:40.681Z,100585.02
2018-02-12T14:07:06.482Z,100579.80
2018-02-12T14:09:33.242Z,100588.76
2018-02-12T14:11:59.073Z,100584.81
2018-02-12T14:14:25.761Z,100587.17
2018-02-12T14:16:51.777Z,100593.67
2018-02-12T14:19:17.644Z,100591.88
2018-02-12T14:21:44.297Z,100592.63
2018-02-12T14:24:11.058Z,100591.28
2018-02-12T14:26:36.873Z,100597.63
2018-02-12T14:29:03.554Z,100602.06
2018-02-12T14:31:29.366Z,100607.33
2018-02-12T14:33:56.201Z,100604.99
2018-02-12T14:36:23.019Z,100607.25
2018-02-12T14:38:48.941Z,100614.98
2018-02-12T14:41:15.601Z,100607.87
2018-02-12T14:43:42.396Z,100613.90
2018-02-12T14:46:09.140Z,100614.98
2018-02-12T14:48:35.937Z,100617.80
2018-02-12T14:51:02.634Z,100623.15
2018-02-12T14:53:29.290Z,100622.86
2018-02-12T14:55:56.122Z,100629.05
2018-02-12T14:58:22.890Z,100629.59
2018-02-12T15:00:49.698Z,100633.95
2018-02-12T15:03:16.414Z,100632.22
2018-02-12T15:05:43.258Z,100635.15
2018-02-12T15:08:10.032Z,100641.52
2018-02-12T15:10:35.840Z,100638.48
2018-02-12T15:13:02.438Z,100641.08
2018-02-12T15:15:29.149Z,100640.83
2018-02-12T15:17:54.954Z,100636.06
2018-02-12T15:20:20.797Z,100637.00
2018-02-12T15:22:46.647Z,100646.45
2018-02-12T15:25:13.441Z,100653.36
2018-02-12T15:27:39.325Z,100645.45
2018-02-12T15:30:05.139Z,100644.08
2018-02-12T15:32:30.946Z,100651.09
2018-02-12T15:34:56.753Z,100648.16
2018-02-12T15:37:22.557Z,100656.89
2018-02-12T15:39:48.359Z,100650.23
2018-02-12T15:42:14.167Z,100653.37
2018-02-12T15:44:39.978Z,100657.87
2018-02-12T15:47:05.803Z,100662.72
2018-02-12T15:49:31.641Z,100658.39
2018-02-12T15:51:57.462Z,100666.44
2018-02-12T15:54:23.272Z,100669.58
2018-02-12T15:56:49.084Z,100672.55
2018-02-12T15:59:14.890Z,100677.73
2018-02-12T16:01:40.704Z,100675.55
2018-02-12T16:04:07.553Z,100690.21
2018-02-12T16:06:33.358Z,100692.77
2018-02-12T16:08:59.306Z,100696.59
2018-02-12T16:11:25.114Z,100697.91
2018-02-12T16:13:50.917Z,100700.27
2018-02-12T16:16:16.714Z,100702.10
2018-02-12T16:18:42.562Z,100705.09
2018-02-12T16:21:08.366Z,100703.23
2018-02-12T16:23:34.170Z,100706.78
2018-02-12T16:26:00.016Z,100716.59
2018-02-12T16:28:26.811Z,100716.51
2018-02-12T16:30:53.657Z,100724.38
2018-02-12T16:33:20.315Z,100726.30
2018-02-12T16:35:46.137Z,100731.63
2018-02-12T16:38:12.902Z,100733.81
2018-02-12T16:40:38.865Z,100737.59
2018-02-12T16:43:04.925Z,100743.99
2018-02-12T16:45:30.774Z,100738.91
2018-02-12T16:47:56.754Z,100745.45
2018-02-12T16:50:22.610Z,100751.71
2018-02-12T16:52:48.471Z,100747.45
2018-02-12T16:55:15.212Z,100746.38
2018-02-12T16:57:41.012Z,100757.70
2018-02-12T17:00:06.835Z,100755.27
2018-02-12T17:02:32.739Z,100760.03
2018-02-12T17:04:58.570Z,100764.94
2018-02-12T17:07:24.375Z,100767.61
2018-02-12T17:09:50.208Z,100770.18
2018-02-12T17:12:17.003Z,100762.81
2018-02-12T17:14:42.858Z,100765.48
2018-02-12T17:17:08.667Z,100772.87
2018-02-12T17:19:34.517Z,100775.57
2018-02-12T17:22:00.445Z,100774.91
2018-02-12T17:24:26.254Z,100782.03
2018-02-12T17:26:52.194Z,100788.55
2018-02-12T17:29:18.036Z,100791.55
2018-02-12T17:31:43.846Z,100790.89
2018-02-12T17:34:09.645Z,100795.08
2018-02-12T17:36:36.321Z,100794.41
2018-02-12T17:39:02.202Z,100796.51
2018-02-12T17:41:28.054Z,100799.05
2018-02-12T17:43:53.865Z,100803.16
2018-02-12T17:46:20.539Z,100807.95
2018-02-12T17:48:46.554Z,100813.13
2018-02-12T17:51:13.245Z,100816.21
2018-02-12T17:53:40.021Z,100819.53
2018-02-12T17:56:06.915Z,100822.24
2018-02-12T17:58:33.726Z,100823.00
2018-02-12T18:01:00.574Z,100826.98
2018-02-12T18:03:26.677Z,100831.47
2018-02-12T18:05:52.531Z,100832.91
2018-02-12T18:08:18.366Z,100822.91
2018-02-12T18:10:44.179Z,100820.73
2018-02-12T18:13:09.981Z,100823.68
2018-02-12T18:15:46.551Z,100830.02
2018-02-12T18:18:17.999Z,100837.02
2018-02-12T18:20:43.969Z,100836.20
2018-02-12T18:23:09.760Z,100841.44
2018-02-12T18:25:35.614Z,100839.66
2018-02-12T18:28:01.475Z,100840.05
2018-02-12T18:30:27.281Z,100836.41
2018-02-12T18:32:53.110Z,100840.66
2018-02-12T18:35:18.961Z,100844.56
2018-02-12T18:37:45.682Z,100840.91
2018-02-12T18:40:12.374Z,100850.41
2018-02-12T18:42:38.260Z,100850.49
2018-02-12T18:45:06.180Z,100856.80
2018-02-12T18:47:33.331Z,100853.56
2018-02-12T18:50:00.094Z,100864.98
2018-02-12T18:52:25.898Z,100867.69
2018-02-12T18:54:51.712Z,100870.38
2018-02-12T18:57:18.350Z,100869.41
2018-02-12T18:59:44.286Z,100879.05
2018-02-12T19:02:10.404Z,100881.05
2018-02-12T19:04:36.267Z,100886.07
2018-02-12T19:07:02.110Z,100886.68
2018-02-12T19:09:27.914Z,100888.22
2018-02-12T19:11:53.822Z,100891.43
2018-02-12T19:14:19.786Z,100896.12
2018-02-12T19:16:45.609Z,100892.62
2018-02-12T19:19:11.520Z,100896.43
2018-02-12T19:24:25.624Z,100903.55
2018-02-12T19:26:52.178Z,100901.95
2018-02-12T19:29:19.015Z,100903.19
2018-02-12T19:31:44.914Z,100901.96
2018-02-12T19:34:10.718Z,100900.28
2018-02-12T19:36:36.514Z,100905.58
2018-02-12T19:39:02.531Z,100910.80
2018-02-12T19:41:29.022Z,100907.75
2018-02-12T19:43:55.942Z,100906.77
2018-02-12T19:46:21.949Z,100912.06
2018-02-12T19:48:47.857Z,100910.82
2018-02-12T19:51:13.661Z,100915.12
2018-02-12T19:53:39.470Z,100917.12
2018-02-12T19:56:05.271Z,100916.44
2018-02-12T19:58:33.650Z,100920.33
2018-02-12T20:01:01.790Z,100921.39
2018-02-12T20:03:27.631Z,100929.93
2018-02-12T20:05:55.332Z,100928.17
2018-02-12T20:08:21.172Z,100932.91
2018-02-12T20:10:47.253Z,100936.66
2018-02-12T20:13:14.053Z,100934.86
2018-02-12T20:15:41.252Z,100932.48
2018-02-12T20:18:07.322Z,100935.93
2018-02-12T20:20:33.142Z,100939.13
2018-02-12T20:22:59.021Z,100940.27
2018-02-12T20:25:24.894Z,100943.75
2018-02-12T20:27:50.725Z,100948.17
2018-02-12T20:30:16.621Z,100946.77
2018-02-12T20:32:42.934Z,100950.36
2018-02-12T20:35:08.797Z,100959.96
2018-02-12T20:37:34.777Z,100959.45
2018-02-12T20:40:01.222Z,100957.86
2018-02-12T20:42:27.046Z,100957.66
2018-02-12T20:44:52.954Z,100965.14
2018-02-12T20:47:18.806Z,100959.52
2018-02-12T20:49:44.689Z,100967.33
2018-02-12T20:52:10.497Z,100969.06
2018-02-12T20:54:36.307Z,100967.80
2018-02-12T20:57:02.122Z,100975.39
2018-02-12T20:59:28.197Z,100973.97
2018-02-12T21:01:54.006Z,100971.56
2018-02-12T21:04:19.958Z,100978.14
2018-02-12T21:06:45.767Z,100985.67
2018-02-12T21:09:11.582Z,100978.73
2018-02-12T21:11:38.980Z,100981.72
2018-02-12T21:14:06.142Z,100987.07
2018-02-12T21:16:31.953Z,100991.91
2018-02-12T21:18:57.902Z,100990.13
2018-02-12T21:21:23.826Z,100996.81
2018-02-12T21:23:49.645Z,101001.53
2018-02-12T21:26:15.449Z,101001.45
2018-02-12T21:28:41.382Z,101002.59
2018-02-12T21:31:07.194Z,101013.37
2018-02-12T21:33:33.834Z,101012.28
2018-02-12T21:36:00.958Z,101024.69
2018-02-12T21:38:27.591Z,101023.96
2018-02-12T21:40:53.393Z,101016.73
2018-02-12T21:43:19.885Z,101028.81
2018-02-12T21:45:45.688Z,101025.34
2018-02-12T21:48:11.621Z,101034.08
2018-02-12T21:50:37.558Z,101030.07
2018-02-12T21:53:03.441Z,101031.75
2018-02-12T21:55:29.290Z,101031.50
2018-02-12T21:57:55.097Z,101027.05
2018-02-12T22:00:21.034Z,101029.27
2018-02-12T22:02:46.841Z,101031.38
2018-02-12T22:05:12.653Z,101036.16
2018-02-12T22:07:38.480Z,101042.94
2018-02-12T22:10:05.258Z,101039.20
2018-02-12T22:12:31.066Z,101044.18
2018-02-12T22:14:56.873Z,101044.80
2018-02-12T22:17:22.681Z,101046.59
2018-02-12T22:19:48.501Z,101044.42
2018-02-12T22:22:15.317Z,101052.86
2018-02-12T22:24:42.025Z,101048.86
2018-02-12T22:27:08.773Z,101048.30
2018-02-12T22:29:35.556Z,101046.42
2018-02-12T22:32:02.431Z,101050.70
2018-02-12T22:34:29.121Z,101048.01
2018-02-12T22:36:54.926Z,101057.25
2018-02-12T22:39:20.738Z,101055.09
2018-02-12T22:41:46.959Z,101053.76
2018-02-12T22:44:13.746Z,101045.92
2018-02-12T22:46:40.506Z,101051.97
2018-02-12T22:49:06.314Z,101045.22
2018-02-12T22:51:32.154Z,101044.02
2018-02-12T22:53:58.090Z,101049.09
2018-02-12T22:56:24.892Z,101045.98
2018-02-12T22:58:50.731Z,101053.10
2018-02-12T23:01:16.553Z,101051.08
2018-02-12T23:03:42.353Z,101048.92
2018-02-12T23:06:08.301Z,101055.19
2018-02-12T23:08:34.146Z,101049.52
2018-02-12T23:11:00.856Z,101055.98
2018-02-12T23:13:27.585Z,101061.61
2018-02-12T23:15:53.417Z,101056.34
2018-02-12T23:18:19.229Z,101064.30
2018-02-12T23:20:46.050Z,101066.38
2018-02-12T23:23:11.860Z,101073.16
2018-02-12T23:25:37.718Z,101070.70
2018-02-12T23:28:03.523Z,101073.39
2018-02-12T23:30:30.180Z,101071.95
2018-02-12T23:32:56.045Z,101072.67
2018-02-12T23:35:21.854Z,101079.79
2018-02-12T23:37:48.454Z,101076.03
2018-02-12T23:40:14.269Z,101079.72
2018-02-12T23:42:40.128Z,101086.20
2018-02-12T23:45:05.978Z,101086.25
2018-02-12T23:47:32.656Z,101087.08
2018-02-12T23:49:58.458Z,101092.95
2018-02-12T23:52:24.270Z,101096.25
2018-02-12T23:54:50.081Z,101095.53
2018-02-12T23:57:16.686Z,101104.44
2018-02-12T23:59:42.498Z,101101.03
